Time;durP1;ratioP1;P1;durP2;ratioP2;P2;SDS_P1;SDS_P2;PMS_P1;PMS_P2;Temp;Humidity;BMP_temperature;BMP_pressure;BME280_temperature;BME280_humidity;BME280_pressure;Samples;Min_cycle;Max_cycle;Signal;HPM_P1;HPM_P2
2023/09/26 00:01:02;;;;;;;13.30;5.60;;;14.90;99.90;;;;;;7310428;19;20276;-81
2023/09/26 00:03:28;;;;;;;11.93;5.83;;;14.80;99.90;;;;;;7290627;19;20270;-81
2023/09/26 00:05:55;;;;;;;12.07;5.27;;;14.80;99.90;;;;;;7289431;19;20268;-82
2023/09/26 00:08:21;;;;;;;12.53;5.20;;;14.80;99.90;;;;;;7288787;19;20183;-81
2023/09/26 00:10:48;;;;;;;11.13;4.90;;;14.70;99.90;;;;;;7288501;19;20208;-82
2023/09/26 00:13:15;;;;;;;13.27;5.17;;;14.50;99.90;;;;;;7289692;19;20189;-81
2023/09/26 00:15:41;;;;;;;11.37;5.03;;;14.40;99.90;;;;;;7289597;19;21411;-81
2023/09/26 00:18:07;;;;;;;12.17;5.10;;;14.40;99.90;;;;;;7289897;19;20200;-81
2023/09/26 00:20:35;;;;;;;11.10;4.80;;;14.30;99.90;;;;;;7310240;19;20201;-82
2023/09/26 00:23:01;;;;;;;11.70;4.93;;;14.20;99.90;;;;;;7291224;19;20198;-81
2023/09/26 00:25:27;;;;;;;11.47;5.00;;;14.30;99.90;;;;;;7290181;19;20185;-82
2023/09/26 00:27:56;;;;;;;12.07;4.97;;;14.20;99.90;;;;;;7292203;19;20178;-82
2023/09/26 00:30:25;;;;;;;8.93;4.90;;;14.20;99.90;;;;;;7288624;19;20182;-82
2023/09/26 00:32:51;;;;;;;11.57;4.97;;;14.10;99.90;;;;;;7287414;19;20666;-82
2023/09/26 00:35:17;;;;;;;13.93;5.00;;;14.20;99.90;;;;;;7289904;19;20199;-82
2023/09/26 00:37:49;;;;;;;9.37;5.00;;;14.20;99.90;;;;;;7288921;19;20253;-82
2023/09/26 00:40:15;;;;;;;16.37;5.50;;;14.20;99.90;;;;;;7287367;19;20188;-81
2023/09/26 00:42:42;;;;;;;9.90;5.10;;;14.20;99.90;;;;;;7288718;19;20274;-82
2023/09/26 00:45:09;;;;;;;9.37;5.07;;;14.20;99.90;;;;;;7287869;19;20194;-82
2023/09/26 00:47:36;;;;;;;11.73;5.40;;;14.20;99.90;;;;;;7299853;19;20200;-82
2023/09/26 00:50:12;;;;;;;11.37;5.13;;;14.20;99.90;;;;;;7311270;19;20276;-82
2023/09/26 00:52:41;;;;;;;12.00;5.20;;;14.10;99.90;;;;;;7267362;19;20191;-82
2023/09/26 00:55:07;;;;;;;12.73;5.20;;;14.10;99.90;;;;;;7288963;19;20195;-81
2023/09/26 00:57:34;;;;;;;12.03;4.97;;;14.00;99.90;;;;;;7309029;19;20190;-82
2023/09/26 01:00:04;;;;;;;8.90;4.47;;;14.00;99.90;;;;;;7287563;19;20199;-82
2023/09/26 01:02:31;;;;;;;11.13;5.07;;;14.00;99.90;;;;;;7288429;19;20199;-81
2023/09/26 01:04:57;;;;;;;11.27;4.33;;;14.10;99.90;;;;;;7287153;19;20195;-80
2023/09/26 01:07:23;;;;;;;10.73;4.70;;;14.00;99.90;;;;;;7286880;19;20211;-81
2023/09/26 01:09:52;;;;;;;10.80;4.73;;;14.10;99.90;;;;;;7287813;19;20198;-81
2023/09/26 01:12:20;;;;;;;11.23;4.73;;;14.30;99.90;;;;;;7286665;19;20194;-81
2023/09/26 01:14:46;;;;;;;9.97;5.50;;;14.30;99.90;;;;;;7288156;19;20184;-81
2023/09/26 01:17:12;;;;;;;14.07;5.13;;;14.50;99.90;;;;;;7286970;19;20541;-81
2023/09/26 01:19:38;;;;;;;11.97;5.30;;;14.50;99.90;;;;;;7287056;19;20195;-81
2023/09/26 01:22:04;;;;;;;12.63;5.43;;;14.60;99.90;;;;;;7309732;19;20198;-81
2023/09/26 01:24:30;;;;;;;10.70;5.63;;;14.60;99.90;;;;;;7287794;19;20200;-81
2023/09/26 01:26:56;;;;;;;10.73;5.80;;;14.60;99.90;;;;;;7286082;19;20257;-80
2023/09/26 01:29:22;;;;;;;14.63;6.53;;;14.60;99.90;;;;;;7286485;19;20188;-80
2023/09/26 01:31:48;;;;;;;13.67;6.07;;;14.70;99.90;;;;;;7285961;19;20642;-81
2023/09/26 01:34:13;;;;;;;10.40;5.57;;;14.70;99.90;;;;;;7288031;19;20208;-80
2023/09/26 01:36:39;;;;;;;13.23;5.33;;;14.80;99.90;;;;;;7286237;19;20278;-81
2023/09/26 01:39:05;;;;;;;10.60;5.33;;;14.80;99.90;;;;;;7302252;19;20202;-80
2023/09/26 01:41:31;;;;;;;12.63;6.00;;;15.00;99.90;;;;;;7307710;19;20191;-81
2023/09/26 01:43:57;;;;;;;11.70;5.20;;;15.10;99.90;;;;;;7286079;19;20203;-81
2023/09/26 01:46:24;;;;;;;10.80;5.17;;;15.20;99.90;;;;;;7285923;19;20212;-81
2023/09/26 01:48:50;;;;;;;11.70;5.20;;;15.20;99.90;;;;;;7286631;19;20196;-82
2023/09/26 01:51:16;;;;;;;11.10;4.87;;;15.10;99.90;;;;;;7285407;19;20681;-81
2023/09/26 01:53:42;;;;;;;9.83;4.77;;;15.00;99.90;;;;;;7285992;19;20192;-81
2023/09/26 01:56:07;;;;;;;11.63;4.93;;;15.00;99.90;;;;;;7284819;19;20676;-81
2023/09/26 01:58:34;;;;;;;13.57;5.00;;;14.90;99.90;;;;;;7307364;19;20212;-82
2023/09/26 02:00:59;;;;;;;11.70;4.90;;;14.80;99.90;;;;;;7286294;19;20194;-82
2023/09/26 02:03:26;;;;;;;15.87;4.67;;;14.70;99.90;;;;;;7286173;19;20620;-81
2023/09/26 02:05:55;;;;;;;12.27;4.90;;;14.80;99.90;;;;;;7286517;19;20219;-80
2023/09/26 02:08:21;;;;;;;13.03;5.33;;;14.70;99.90;;;;;;7286942;19;20192;-80
2023/09/26 02:10:47;;;;;;;11.70;5.73;;;14.70;99.90;;;;;;7284109;19;20200;-81
2023/09/26 02:13:12;;;;;;;13.80;5.50;;;14.60;99.90;;;;;;7286210;19;20190;-81
2023/09/26 02:15:38;;;;;;;14.33;6.23;;;14.50;99.90;;;;;;7283894;19;20195;-81
2023/09/26 02:18:05;;;;;;;13.30;5.83;;;14.40;99.90;;;;;;7306816;19;20532;-81
2023/09/26 02:20:31;;;;;;;12.87;6.37;;;14.40;99.90;;;;;;7285764;19;20601;-81
2023/09/26 02:22:59;;;;;;;14.63;7.07;;;14.40;99.90;;;;;;7286407;19;20191;-81
2023/09/26 02:25:25;;;;;;;19.10;8.00;;;14.40;99.90;;;;;;7288382;19;20216;-81
2023/09/26 02:27:53;;;;;;;19.13;8.83;;;14.40;99.90;;;;;;7286435;19;20255;-81
2023/09/26 02:30:26;;;;;;;21.87;9.00;;;14.50;99.90;;;;;;7284319;19;20186;-82
2023/09/26 02:32:52;;;;;;;17.90;9.13;;;14.50;99.90;;;;;;7285034;19;20241;-81
2023/09/26 02:35:19;;;;;;;21.07;9.73;;;14.50;99.90;;;;;;7288969;19;20969;-80
2023/09/26 02:37:45;;;;;;;16.93;9.40;;;14.60;99.90;;;;;;7298657;19;20183;-80
2023/09/26 02:40:12;;;;;;;19.13;8.90;;;14.60;99.90;;;;;;7297769;19;20203;-81
2023/09/26 02:42:45;;;;;;;18.47;9.17;;;14.50;99.90;;;;;;7298135;19;20198;-81
2023/09/26 02:45:12;;;;;;;16.60;8.57;;;14.60;99.90;;;;;;7298599;19;20191;-80
2023/09/26 02:47:40;;;;;;;18.77;8.33;;;14.60;99.90;;;;;;7298010;19;20538;-81
2023/09/26 02:50:07;;;;;;;19.83;9.27;;;14.60;99.90;;;;;;7296843;19;20201;-80
2023/09/26 02:52:33;;;;;;;22.27;9.00;;;14.50;99.90;;;;;;7304881;19;20189;-81
2023/09/26 02:55:01;;;;;;;24.87;10.10;;;14.50;99.90;;;;;;7286238;19;20199;-82
2023/09/26 02:57:26;;;;;;;21.00;10.07;;;14.50;99.90;;;;;;7284679;19;20247;-81
2023/09/26 02:59:52;;;;;;;24.03;10.00;;;14.60;99.90;;;;;;7285558;19;20567;-82
2023/09/26 03:02:18;;;;;;;19.50;8.77;;;14.70;99.90;;;;;;7271238;19;20261;-81
2023/09/26 03:04:50;;;;;;;20.27;8.47;;;14.70;99.90;;;;;;7278476;19;20668;-82
2023/09/26 03:07:16;;;;;;;17.33;7.83;;;14.80;99.90;;;;;;7282230;19;20190;-81
2023/09/26 03:09:42;;;;;;;18.90;8.87;;;14.70;99.90;;;;;;7280994;19;20452;-82
2023/09/26 03:12:08;;;;;;;19.40;9.50;;;14.70;99.90;;;;;;7282296;19;20650;-81
2023/09/26 03:14:34;;;;;;;15.93;8.53;;;14.70;99.90;;;;;;7303771;19;20203;-82
2023/09/26 03:17:00;;;;;;;21.80;9.43;;;14.90;99.90;;;;;;7282090;19;20290;-82
2023/09/26 03:19:26;;;;;;;20.47;9.20;;;14.90;99.90;;;;;;7279970;19;20281;-81
2023/09/26 03:21:52;;;;;;;20.63;9.27;;;15.20;99.90;;;;;;7282946;19;20202;-81
2023/09/26 03:24:18;;;;;;;20.80;9.43;;;15.30;99.90;;;;;;7287749;19;20209;-82
2023/09/26 03:26:45;;;;;;;21.20;8.87;;;15.30;99.90;;;;;;7286710;19;21046;-82
2023/09/26 03:29:11;;;;;;;23.77;9.70;;;15.20;99.90;;;;;;7286178;19;20198;-81
2023/09/26 03:31:41;;;;;;;19.73;8.53;;;15.10;99.90;;;;;;7287028;19;20231;-81
2023/09/26 03:34:08;;;;;;;19.27;8.10;;;14.90;99.90;;;;;;7289890;19;20199;-81
2023/09/26 03:36:36;;;;;;;15.17;7.67;;;14.90;99.90;;;;;;7310024;19;20293;-82
2023/09/26 03:39:03;;;;;;;21.50;8.07;;;14.90;99.90;;;;;;7286259;19;20299;-81
2023/09/26 03:41:30;;;;;;;16.67;7.67;;;14.90;99.90;;;;;;7286483;19;20195;-82
2023/09/26 03:43:56;;;;;;;18.27;7.53;;;15.00;99.90;;;;;;7286167;19;20196;-80
2023/09/26 03:46:21;;;;;;;19.63;8.73;;;15.00;99.90;;;;;;7286807;19;20192;-80
2023/09/26 03:48:49;;;;;;;19.97;8.47;;;15.10;99.90;;;;;;7286598;19;20192;-81
2023/09/26 03:51:15;;;;;;;18.77;8.53;;;15.10;99.90;;;;;;7287005;19;20230;-80
2023/09/26 03:53:43;;;;;;;19.07;8.20;;;15.20;99.90;;;;;;7285799;19;20200;-82
2023/09/26 03:56:09;;;;;;;19.37;8.37;;;15.40;99.90;;;;;;7285382;19;20196;-79
2023/09/26 03:58:35;;;;;;;19.83;7.67;;;15.50;99.90;;;;;;7307810;19;20191;-81
2023/09/26 04:01:21;;;;;;;18.30;8.23;;;15.50;99.90;;;;;;7286082;19;20192;-80
2023/09/26 04:03:48;;;;;;;19.53;7.73;;;15.50;99.90;;;;;;7186564;19;2004464;-81
2023/09/26 04:06:17;;;;;;;17.97;7.07;;;15.50;99.90;;;;;;7288804;19;20204;-82
2023/09/26 04:08:43;;;;;;;16.93;7.27;;;15.40;99.90;;;;;;7289880;19;20192;-81
2023/09/26 04:11:13;;;;;;;18.13;7.07;;;15.40;99.90;;;;;;7288102;19;20196;-81
2023/09/26 04:13:39;;;;;;;17.07;7.03;;;15.40;99.90;;;;;;7288615;19;20210;-81
2023/09/26 04:16:05;;;;;;;15.00;6.63;;;15.40;99.90;;;;;;7311180;19;20195;-79
2023/09/26 04:18:31;;;;;;;20.07;7.53;;;15.40;99.90;;;;;;7300380;19;20610;-82
2023/09/26 04:21:04;;;;;;;17.07;7.30;;;15.30;99.90;;;;;;7290779;19;20247;-82
2023/09/26 04:23:30;;;;;;;19.57;7.70;;;15.20;99.90;;;;;;7289929;19;20223;-81
2023/09/26 04:25:57;;;;;;;18.97;7.27;;;15.20;99.90;;;;;;7289836;19;20197;-82
2023/09/26 04:28:22;;;;;;;18.33;7.53;;;15.10;99.90;;;;;;7289173;19;20540;-83
2023/09/26 04:30:48;;;;;;;16.07;7.20;;;15.10;99.90;;;;;;7287913;19;20194;-82
2023/09/26 04:33:15;;;;;;;15.77;7.07;;;15.10;99.90;;;;;;7286126;19;20657;-81
2023/09/26 04:35:41;;;;;;;15.70;7.20;;;14.90;99.90;;;;;;7291086;19;20349;-81
2023/09/26 04:38:07;;;;;;;18.23;8.13;;;14.90;99.90;;;;;;7293805;19;20198;-80
2023/09/26 04:40:34;;;;;;;20.63;7.03;;;15.00;99.90;;;;;;7312032;19;20553;-82
2023/09/26 04:43:03;;;;;;;18.73;7.67;;;14.90;99.90;;;;;;7289108;19;20567;-81
2023/09/26 04:45:33;;;;;;;23.47;7.07;;;14.90;99.90;;;;;;7288318;19;20187;-81
2023/09/26 04:48:00;;;;;;;20.90;7.73;;;14.90;99.90;;;;;;7289042;19;20192;-82
2023/09/26 04:50:27;;;;;;;23.40;7.67;;;14.80;99.90;;;;;;7287937;19;20397;-82
2023/09/26 04:52:53;;;;;;;19.20;6.30;;;14.80;99.90;;;;;;7286211;19;20330;-82
2023/09/26 04:55:19;;;;;;;25.03;7.03;;;14.80;99.90;;;;;;7288212;19;20753;-82
2023/09/26 04:57:45;;;;;;;18.33;6.93;;;14.70;99.90;;;;;;7287421;19;20261;-81
2023/09/26 05:00:11;;;;;;;21.57;6.90;;;14.80;99.90;;;;;;7288642;19;20237;-81
2023/09/26 05:02:37;;;;;;;18.40;6.53;;;14.90;99.90;;;;;;7288919;19;20202;-82
2023/09/26 05:05:03;;;;;;;15.53;6.60;;;14.90;99.90;;;;;;7310394;19;20266;-84
2023/09/26 05:07:30;;;;;;;20.60;7.03;;;14.80;99.90;;;;;;7288556;19;20700;-83
2023/09/26 05:09:57;;;;;;;25.53;7.67;;;14.80;99.90;;;;;;7287884;19;20739;-83
2023/09/26 05:12:22;;;;;;;19.67;7.30;;;14.70;99.90;;;;;;7289085;19;20202;-81
2023/09/26 05:14:48;;;;;;;22.67;7.23;;;14.70;99.90;;;;;;7289206;19;20190;-83
2023/09/26 05:17:14;;;;;;;19.13;6.53;;;14.70;99.90;;;;;;7288601;19;20186;-83
2023/09/26 05:19:40;;;;;;;15.43;6.40;;;14.70;99.90;;;;;;7288825;19;20271;-82
2023/09/26 05:22:06;;;;;;;15.67;6.33;;;14.60;99.90;;;;;;7306664;19;20202;-81
2023/09/26 05:24:31;;;;;;;13.30;5.90;;;14.50;99.90;;;;;;7300420;19;20194;-83
2023/09/26 05:26:57;;;;;;;15.07;6.60;;;14.50;99.90;;;;;;7288354;19;20198;-83
2023/09/26 05:29:23;;;;;;;17.63;6.00;;;14.50;99.90;;;;;;7287559;19;20214;-82
2023/09/26 05:31:49;;;;;;;17.70;6.27;;;14.60;99.90;;;;;;7286156;19;20319;-82
2023/09/26 05:34:15;;;;;;;24.57;6.47;;;14.60;99.90;;;;;;7284308;19;20322;-82
2023/09/26 05:36:51;;;;;;;22.23;6.97;;;14.50;99.90;;;;;;7282449;19;20604;-83
2023/09/26 05:39:24;;;;;;;18.80;6.07;;;14.50;99.90;;;;;;7272713;19;20692;-85
2023/09/26 05:41:55;;;;;;;13.37;5.50;;;14.50;99.90;;;;;;7283894;19;20195;-85
2023/09/26 05:44:25;;;;;;;16.27;6.37;;;14.40;99.90;;;;;;7289729;19;20203;-84
2023/09/26 05:46:55;;;;;;;17.30;5.63;;;14.40;99.90;;;;;;7290622;19;20220;-86
2023/09/26 05:52:25;;;;;;;13.30;5.40;;;14.30;99.90;;;;;;7184574;19;2004643;-85
2023/09/26 05:54:51;;;;;;;16.50;5.43;;;14.20;99.90;;;;;;7288112;19;20546;-85
2023/09/26 05:57:18;;;;;;;13.57;5.13;;;14.30;99.90;;;;;;7285806;19;20200;-84
2023/09/26 05:59:44;;;;;;;13.33;5.13;;;14.30;99.90;;;;;;7287822;19;20291;-85
2023/09/26 06:02:13;;;;;;;12.87;4.57;;;14.20;99.90;;;;;;7287116;19;20194;-85
2023/09/26 06:04:42;;;;;;;13.87;5.93;;;14.30;99.90;;;;;;7287526;19;20189;-84
2023/09/26 06:07:09;;;;;;;14.40;5.97;;;14.40;99.90;;;;;;7286013;19;20194;-85
2023/09/26 06:09:39;;;;;;;13.63;5.27;;;14.50;99.90;;;;;;7309987;19;20623;-85
2023/09/26 06:12:05;;;;;;;15.70;5.30;;;14.50;99.90;;;;;;7287483;19;20193;-84
2023/09/26 06:14:34;;;;;;;10.33;4.37;;;14.60;99.90;;;;;;7287531;19;20200;-85
2023/09/26 06:17:00;;;;;;;14.33;4.63;;;14.60;99.90;;;;;;7287191;19;20658;-85
2023/09/26 06:19:26;;;;;;;13.37;4.47;;;14.70;99.90;;;;;;7287056;19;20535;-85
2023/09/26 06:21:52;;;;;;;11.03;4.13;;;14.70;99.90;;;;;;7286935;19;20194;-85
2023/09/26 06:24:18;;;;;;;13.60;5.40;;;14.90;99.90;;;;;;7286566;19;20187;-85
2023/09/26 06:26:44;;;;;;;14.10;4.60;;;15.10;99.90;;;;;;7285900;19;20189;-85
2023/09/26 06:29:10;;;;;;;12.67;4.60;;;15.40;99.90;;;;;;7286923;19;20291;-86
2023/09/26 06:31:38;;;;;;;9.57;3.90;;;15.60;99.90;;;;;;7304867;19;20181;-84
2023/09/26 06:34:03;;;;;;;9.90;4.30;;;15.80;99.90;;;;;;7309113;19;20187;-85
2023/09/26 06:36:32;;;;;;;10.87;3.80;;;16.20;99.90;;;;;;7287170;19;20647;-85
2023/09/26 06:38:58;;;;;;;11.03;4.13;;;16.50;99.90;;;;;;7285550;19;20990;-85
2023/09/26 06:41:24;;;;;;;11.17;3.93;;;16.90;99.90;;;;;;7286905;19;20194;-85
2023/09/26 06:43:50;;;;;;;13.00;3.73;;;17.00;99.90;;;;;;7286726;19;20177;-85
2023/09/26 06:46:21;;;;;;;12.10;3.70;;;17.50;99.90;;;;;;7285974;19;20185;-85
2023/09/26 06:48:52;;;;;;;9.13;3.57;;;17.70;99.90;;;;;;7286763;19;20254;-86
2023/09/26 06:51:17;;;;;;;10.30;3.33;;;17.80;99.90;;;;;;7285765;19;20185;-86
2023/09/26 06:53:43;;;;;;;12.07;3.27;;;17.60;99.90;;;;;;7286460;19;20198;-86
2023/09/26 06:56:13;;;;;;;11.30;3.23;;;17.40;99.90;;;;;;7287266;19;20189;-86
2023/09/26 06:58:39;;;;;;;10.13;3.27;;;17.30;99.90;;;;;;7294317;19;20734;-85
2023/09/26 07:01:14;;;;;;;12.10;3.47;;;17.30;99.90;;;;;;7316024;19;20253;-86
2023/09/26 07:03:40;;;;;;;9.47;2.97;;;17.50;99.90;;;;;;7271286;19;20184;-85
2023/09/26 07:06:10;;;;;;;11.83;3.63;;;18.20;99.90;;;;;;7307568;19;20557;-82
2023/09/26 07:08:43;;;;;;;10.23;3.63;;;18.90;99.90;;;;;;7308598;19;20254;-85
2023/09/26 07:11:09;;;;;;;12.83;4.00;;;19.70;99.90;;;;;;7292195;19;20193;-83
2023/09/26 07:13:36;;;;;;;10.17;3.70;;;19.80;99.90;;;;;;7308381;19;20264;-83
2023/09/26 07:16:04;;;;;;;12.37;3.90;;;19.50;99.90;;;;;;7306124;19;20294;-84
2023/09/26 07:18:37;;;;;;;11.20;4.00;;;19.40;99.90;;;;;;7291808;19;20732;-86
2023/09/26 07:21:09;;;;;;;10.73;4.17;;;19.40;99.90;;;;;;7292992;19;20214;-86
2023/09/26 07:23:36;;;;;;;15.43;4.17;;;19.00;99.90;;;;;;7292377;19;20193;-86
2023/09/26 07:26:16;;;;;;;11.73;3.90;;;19.00;99.90;;;;;;7294160;19;20201;-85
2023/09/26 07:28:44;;;;;;;10.97;3.50;;;19.10;99.90;;;;;;7197004;19;2004617;-85
2023/09/26 07:31:14;;;;;;;12.63;3.67;;;19.70;99.90;;;;;;7297035;19;20567;-83
2023/09/26 07:33:41;;;;;;;12.33;3.70;;;20.60;99.90;;;;;;7292048;19;20230;-84
2023/09/26 07:36:08;;;;;;;13.20;3.90;;;20.50;99.90;;;;;;7303380;19;20654;-84
2023/09/26 07:38:34;;;;;;;11.13;3.90;;;20.60;99.90;;;;;;7311636;19;20194;-86
2023/09/26 07:41:01;;;;;;;11.73;3.60;;;20.60;99.90;;;;;;7292092;19;20659;-84
2023/09/26 07:43:32;;;;;;;10.97;3.80;;;20.80;99.90;;;;;;7291931;19;20198;-84
2023/09/26 07:46:08;;;;;;;8.73;3.53;;;21.10;99.90;;;;;;7290847;19;20186;-84
2023/09/26 07:48:35;;;;;;;11.53;4.30;;;21.40;99.90;;;;;;7291465;19;20196;-84
2023/09/26 07:51:02;;;;;;;10.87;3.63;;;21.60;99.90;;;;;;7292051;19;20185;-84
2023/09/26 07:53:28;;;;;;;11.57;3.83;;;21.90;99.90;;;;;;7291755;19;20178;-84
2023/09/26 07:55:58;;;;;;;13.73;3.77;;;22.20;99.90;;;;;;7292289;19;20188;-84
2023/09/26 07:58:24;;;;;;;11.23;3.83;;;21.70;99.90;;;;;;7292414;19;20200;-84
2023/09/26 08:00:53;;;;;;;13.20;3.90;;;21.80;99.90;;;;;;7291228;19;20189;-84
2023/09/26 08:03:21;;;;;;;13.33;3.60;;;21.50;99.90;;;;;;7291878;19;20263;-83
2023/09/26 08:05:48;;;;;;;10.53;3.63;;;21.20;99.90;;;;;;7291208;19;20224;-84
2023/09/26 08:08:14;;;;;;;13.43;4.10;;;20.80;99.90;;;;;;7290930;19;20189;-83
2023/09/26 08:10:41;;;;;;;13.03;3.93;;;20.90;99.90;;;;;;7291661;19;20188;-83
2023/09/26 08:13:07;;;;;;;12.20;3.80;;;21.00;99.90;;;;;;7311008;19;20192;-85
2023/09/26 08:15:34;;;;;;;12.60;3.83;;;21.10;99.90;;;;;;7311721;19;20560;-84
2023/09/26 08:18:01;;;;;;;12.10;3.37;;;21.40;99.90;;;;;;7291513;19;20659;-83
2023/09/26 08:20:30;;;;;;;11.07;3.37;;;22.50;99.90;;;;;;7287704;19;20189;-87
2023/09/26 08:22:56;;;;;;;8.53;3.40;;;24.40;99.90;;;;;;7290666;19;20192;-83
2023/09/26 08:25:22;;;;;;;11.65;3.53;;;26.10;99.90;;;;;;7289439;19;20204;-84
2023/09/26 08:27:50;;;;;;;10.55;3.28;;;26.00;99.90;;;;;;7291167;19;20199;-84
2023/09/26 08:30:16;;;;;;;10.80;4.23;;;25.10;99.90;;;;;;7290776;19;20193;-84
2023/09/26 08:32:42;;;;;;;11.25;4.45;;;24.50;99.90;;;;;;7288706;19;20195;-85
2023/09/26 08:35:09;;;;;;;14.05;4.30;;;24.10;99.90;;;;;;7289736;19;20185;-84
2023/09/26 08:37:37;;;;;;;14.87;4.20;;;23.80;99.90;;;;;;7313311;19;20177;-84
2023/09/26 08:40:13;;;;;;;15.50;3.93;;;23.40;99.90;;;;;;7291220;19;20192;-84
2023/09/26 08:42:45;;;;;;;10.77;3.90;;;23.30;99.90;;;;;;7268499;19;20282;-83
2023/09/26 08:45:11;;;;;;;11.53;3.97;;;23.10;99.90;;;;;;7289199;19;20219;-83
2023/09/26 08:47:43;;;;;;;13.37;3.80;;;22.90;99.90;;;;;;7299819;19;20655;-83
2023/09/26 08:50:09;;;;;;;11.00;3.97;;;22.80;99.90;;;;;;7291037;19;20193;-83
2023/09/26 08:52:36;;;;;;;11.70;4.30;;;22.50;99.90;;;;;;7310622;19;20206;-84
2023/09/26 08:55:03;;;;;;;9.30;3.53;;;22.40;99.90;;;;;;7288689;19;20201;-84
2023/09/26 08:57:32;;;;;;;12.73;3.87;;;22.30;99.90;;;;;;7289568;19;20189;-84
2023/09/26 09:00:00;;;;;;;13.43;3.83;;;22.40;99.90;;;;;;7290142;19;20188;-84
2023/09/26 09:02:29;;;;;;;12.83;3.97;;;22.30;99.90;;;;;;7290517;19;20209;-84
2023/09/26 09:04:55;;;;;;;11.30;3.73;;;22.40;99.90;;;;;;7288610;19;20189;-83
2023/09/26 09:07:21;;;;;;;12.17;3.67;;;22.40;99.90;;;;;;7289941;19;20189;-84
2023/09/26 09:10:22;;;;;;;11.63;3.70;;;22.80;99.90;;;;;;7289820;19;20209;-85
2023/09/26 09:13:00;;;;;;;10.93;3.70;;;23.30;99.90;;;;;;7184943;19;2004783;-84
2023/09/26 09:15:27;;;;;;;14.73;3.80;;;23.40;99.90;;;;;;7290228;19;20192;-84
2023/09/26 09:17:54;;;;;;;9.30;3.20;;;23.60;99.90;;;;;;7289120;19;20202;-84
2023/09/26 09:20:33;;;;;;;12.67;3.43;;;23.50;99.90;;;;;;7287155;19;20193;-84
2023/09/26 09:23:06;;;;;;;13.00;3.50;;;23.40;99.90;;;;;;7288715;19;20224;-86
2023/09/26 09:25:37;;;;;;;12.57;3.60;;;23.60;99.90;;;;;;7289996;19;20278;-85
2023/09/26 09:28:06;;;;;;;13.37;3.33;;;23.80;99.90;;;;;;7289335;19;20714;-86
2023/09/26 09:30:43;;;;;;;8.47;3.17;;;24.00;99.90;;;;;;7288970;19;20636;-86
2023/09/26 09:33:09;;;;;;;12.70;3.57;;;24.10;99.90;;;;;;7266553;19;20203;-85
2023/09/26 09:35:36;;;;;;;14.63;3.80;;;24.20;99.90;;;;;;7311172;19;20196;-85
2023/09/26 09:38:03;;;;;;;10.83;3.53;;;24.20;99.90;;;;;;7288913;19;20596;-85
2023/09/26 09:40:31;;;;;;;14.57;3.70;;;24.10;99.90;;;;;;7290084;19;20204;-85
2023/09/26 09:42:57;;;;;;;9.13;3.33;;;24.20;99.90;;;;;;7289177;19;20342;-85
2023/09/26 09:45:25;;;;;;;8.87;3.20;;;24.70;99.90;;;;;;7288075;19;20184;-85
2023/09/26 09:47:55;;;;;;;10.20;3.10;;;25.00;99.90;;;;;;7289665;19;20216;-85
2023/09/26 09:50:21;;;;;;;8.40;2.78;;;25.40;99.90;;;;;;7289620;19;20199;-85
2023/09/26 09:52:51;;;;;;;7.47;2.72;;;25.60;99.90;;;;;;7285938;19;20189;-85
2023/09/26 09:55:22;;;;;;;8.85;2.78;;;25.80;99.90;;;;;;7288030;19;20201;-85
2023/09/26 09:57:50;;;;;;;10.77;2.90;;;25.90;99.90;;;;;;7288705;19;20225;-85
2023/09/26 10:00:20;;;;;;;8.70;2.47;;;26.20;99.90;;;;;;7286442;19;20193;-85
2023/09/26 10:02:46;;;;;;;5.80;2.30;;;26.60;99.90;;;;;;7285501;19;20204;-85
2023/09/26 10:05:14;;;;;;;6.50;2.53;;;26.50;99.90;;;;;;7287774;19;20189;-85
2023/09/26 10:07:42;;;;;;;6.68;2.72;;;26.70;99.90;;;;;;7287382;19;20281;-86
2023/09/26 10:10:11;;;;;;;6.32;2.53;;;26.70;99.90;;;;;;7290728;19;20193;-85
2023/09/26 10:12:40;;;;;;;8.48;2.40;;;26.70;99.90;;;;;;7306047;19;20640;-85
2023/09/26 10:15:11;;;;;;;9.50;2.60;;;26.20;99.90;;;;;;7309537;19;20189;-85
2023/09/26 10:17:40;;;;;;;6.30;2.63;;;26.20;99.90;;;;;;7282310;19;20193;-84
2023/09/26 10:20:10;;;;;;;7.10;2.55;;;25.90;99.90;;;;;;7308688;19;20197;-84
2023/09/26 10:22:40;;;;;;;6.22;2.58;;;25.90;99.90;;;;;;7287674;19;20189;-84
2023/09/26 10:25:07;;;;;;;7.03;2.47;;;26.20;99.90;;;;;;7287014;19;20230;-85
2023/09/26 10:27:40;;;;;;;8.85;2.42;;;26.80;99.90;;;;;;7288601;19;20284;-85
2023/09/26 10:30:10;;;;;;;6.40;2.00;;;27.20;99.90;;;;;;7287941;19;20193;-85
2023/09/26 10:32:41;;;;;;;5.07;2.20;;;26.80;99.90;;;;;;7287988;19;20272;-85
2023/09/26 10:35:13;;;;;;;12.07;2.45;;;26.40;99.90;;;;;;7279959;19;20195;-84
2023/09/26 10:37:44;;;;;;;6.00;2.50;;;26.60;99.90;;;;;;7287483;19;20196;-85
2023/09/26 10:40:17;;;;;;;7.40;2.22;;;26.50;99.90;;;;;;7285281;19;20666;-85
2023/09/26 10:42:48;;;;;;;7.78;2.08;;;26.80;99.90;;;;;;7285534;19;20184;-85
2023/09/26 10:45:15;;;;;;;7.30;2.33;;;27.90;99.90;;;;;;7286694;19;20212;-85
2023/09/26 10:47:41;;;;;;;5.72;1.98;;;28.90;99.90;;;;;;7286409;19;20180;-85
2023/09/26 10:50:09;;;;;;;6.82;2.22;;;28.20;99.90;;;;;;7304518;19;20185;-85
2023/09/26 10:52:35;;;;;;;7.45;2.28;;;28.20;99.90;;;;;;7308895;19;20193;-86
2023/09/26 10:55:03;;;;;;;5.32;1.95;;;28.30;99.90;;;;;;7292601;19;20261;-86
2023/09/26 10:57:30;;;;;;;13.85;2.60;;;27.90;99.90;;;;;;7286716;19;20636;-85
2023/09/26 10:59:56;;;;;;;8.13;1.95;;;27.90;99.90;;;;;;7287711;19;20201;-86
2023/09/26 11:02:22;;;;;;;4.63;1.77;;;28.10;99.90;;;;;;7285349;19;20192;-83
2023/09/26 11:04:48;;;;;;;4.75;2.00;;;29.00;99.90;;;;;;7285958;19;20192;-84
2023/09/26 11:07:17;;;;;;;5.60;1.80;;;28.70;99.90;;;;;;7286219;19;20185;-85
2023/09/26 11:09:44;;;;;;;5.85;2.10;;;28.70;99.90;;;;;;7285543;19;20176;-83
2023/09/26 11:12:12;;;;;;;7.45;2.00;;;29.40;99.90;;;;;;7285391;19;20181;-84
2023/09/26 11:14:38;;;;;;;5.35;2.05;;;30.00;99.10;;;;;;7297584;19;20244;-85
2023/09/26 11:17:07;;;;;;;5.88;1.90;;;29.40;99.30;;;;;;7309111;19;20659;-85
2023/09/26 11:19:34;;;;;;;8.25;2.00;;;30.10;99.10;;;;;;7284645;19;20197;-85
2023/09/26 11:22:00;;;;;;;5.07;2.10;;;29.80;98.10;;;;;;7285973;19;20185;-85
2023/09/26 11:24:30;;;;;;;4.55;1.80;;;28.80;99.80;;;;;;7285351;19;20185;-85
2023/09/26 11:27:03;;;;;;;5.57;2.17;;;28.10;99.90;;;;;;7285469;19;20192;-85
2023/09/26 11:29:29;;;;;;;5.18;2.05;;;27.50;99.90;;;;;;7284821;19;20192;-85
2023/09/26 11:31:56;;;;;;;4.55;2.00;;;26.80;99.90;;;;;;7286082;19;20791;-85
2023/09/26 11:34:23;;;;;;;5.40;1.90;;;26.70;99.90;;;;;;7286509;19;20680;-85
2023/09/26 11:36:49;;;;;;;5.60;1.85;;;27.10;99.90;;;;;;7286340;19;20513;-83
2023/09/26 11:39:23;;;;;;;7.13;1.90;;;28.10;99.90;;;;;;7284223;19;20562;-83
2023/09/26 11:42:21;;;;;;;5.38;1.70;;;29.00;99.90;;;;;;7286187;19;20245;-83
2023/09/26 11:44:54;;;;;;;4.47;1.75;;;29.70;99.90;;;;;;7187318;19;2004365;-83
2023/09/26 11:47:21;;;;;;;5.50;1.80;;;29.80;99.90;;;;;;7292651;19;20197;-84
2023/09/26 11:49:49;;;;;;;4.63;1.65;;;29.70;98.70;;;;;;7295984;19;20193;-84
2023/09/26 11:52:16;;;;;;;5.80;1.90;;;30.30;99.20;;;;;;7294521;19;20181;-84
2023/09/26 11:54:41;;;;;;;6.47;1.80;;;30.70;97.00;;;;;;7291245;19;20200;-84
2023/09/26 11:57:08;;;;;;;5.75;2.00;;;30.40;97.60;;;;;;7309055;19;20193;-84
2023/09/26 11:59:34;;;;;;;4.82;1.83;;;31.00;98.20;;;;;;7307646;19;20529;-85
2023/09/26 12:02:00;;;;;;;3.78;1.83;;;31.90;95.60;;;;;;7292042;19;20209;-85
2023/09/26 12:04:31;;;;;;;6.18;1.90;;;32.10;92.60;;;;;;7294742;19;20199;-85
2023/09/26 12:06:57;;;;;;;6.22;1.90;;;31.20;92.40;;;;;;7292916;19;20656;-85
2023/09/26 12:09:22;;;;;;;3.55;1.50;;;31.00;92.20;;;;;;7293642;19;20209;-85
2023/09/26 12:11:53;;;;;;;4.93;1.85;;;30.70;93.30;;;;;;7292331;19;20197;-85
2023/09/26 12:14:19;;;;;;;4.78;1.73;;;30.50;92.90;;;;;;7292154;19;20293;-85
2023/09/26 12:16:50;;;;;;;6.68;2.13;;;30.60;95.10;;;;;;7293386;19;20193;-85
2023/09/26 12:19:17;;;;;;;5.85;2.20;;;30.60;95.50;;;;;;7290813;19;20193;-85
2023/09/26 12:21:42;;;;;;;4.38;2.17;;;30.10;93.60;;;;;;7291552;19;20181;-85
2023/09/26 12:24:08;;;;;;;7.80;1.95;;;29.90;93.60;;;;;;7303028;19;20192;-84
2023/09/26 12:26:37;;;;;;;4.18;1.90;;;29.30;93.40;;;;;;7314510;19;20192;-85
2023/09/26 12:29:04;;;;;;;5.47;1.95;;;28.80;93.60;;;;;;7299190;19;20192;-85
2023/09/26 12:31:30;;;;;;;8.43;1.90;;;28.90;93.80;;;;;;7296455;19;20331;-84
2023/09/26 12:33:56;;;;;;;3.75;1.80;;;29.20;94.10;;;;;;7296668;19;20193;-84
2023/09/26 12:36:23;;;;;;;4.85;1.80;;;29.30;93.40;;;;;;7296718;19;20208;-85
2023/09/26 12:38:49;;;;;;;5.50;1.83;;;29.00;94.90;;;;;;7294121;19;20197;-84
2023/09/26 12:41:14;;;;;;;6.95;2.10;;;29.00;96.00;;;;;;7296748;19;20216;-84
2023/09/26 12:43:41;;;;;;;9.07;1.65;;;28.90;95.30;;;;;;7298446;19;20185;-84